Wetterstation Vordersexau
Wetterdaten: Woche 18.11.13 - 24.11.13 (KW47)
Datum Zeit Temp. A. Feuchte A. Luftdruck Regen Wind Richtung Taupunkt Windchill Windben
18.11.2013 00:00 0,5 C 86 % 1015,1 hPa 0,0 l/m 0,0 km/h O-SO -1,6 C 0,5 C 0,0 km/h
18.11.2013 01:00 0,5 C 86 % 1014,4 hPa 0,0 l/m 0,0 km/h O-NO -1,6 C 0,5 C 0,0 km/h
18.11.2013 02:00 -0,1 C 86 % 1013,9 hPa 0,0 l/m 0,0 km/h O -2,2 C -0,1 C 0,0 km/h
18.11.2013 03:00 0,6 C 85 % 1013,6 hPa 0,0 l/m 0,0 km/h O-NO -1,6 C 0,6 C 0,0 km/h
18.11.2013 04:00 0,7 C 84 % 1012,4 hPa 0,0 l/m 0,0 km/h O-NO -1,7 C 0,7 C 0,0 km/h
18.11.2013 05:00 0,6 C 83 % 1012,1 hPa 0,0 l/m 0,0 km/h NO -1,9 C 0,6 C 0,0 km/h
18.11.2013 06:00 0,3 C 83 % 1011,2 hPa 0,0 l/m 0,0 km/h NO -2,2 C 0,3 C 0,0 km/h
18.11.2013 07:00 0,1 C 83 % 1010,9 hPa 0,0 l/m 0,0 km/h O-SO -2,4 C 0,1 C 0,0 km/h
18.11.2013 08:00 0,6 C 82 % 1011,0 hPa 0,0 l/m 0,0 km/h NO -2,1 C 0,6 C 0,0 km/h
18.11.2013 09:00 7,2 C 86 % 1010,7 hPa 0,0 l/m 0,0 km/h O 5,0 C 7,2 C 0,0 km/h
18.11.2013 10:00 12,9 C 73 % 1010,5 hPa 0,0 l/m 0,0 km/h W 8,2 C 12,9 C 0,0 km/h
18.11.2013 11:00 13,0 C 66 % 1010,1 hPa 0,0 l/m 0,0 km/h W 6,8 C 13,0 C 0,0 km/h
18.11.2013 12:00 13,6 C 64 % 1009,1 hPa 0,0 l/m 0,0 km/h W 6,9 C 13,6 C 0,0 km/h
18.11.2013 13:00 13,3 C 66 % 1008,4 hPa 0,0 l/m 4,5 km/h W-NW 7,1 C 13,3 C 2,5 km/h
18.11.2013 14:00 14,8 C 63 % 1007,9 hPa 0,0 l/m 0,0 km/h NW 7,8 C 14,8 C 0,0 km/h
18.11.2013 15:00 12,9 C 65 % 1007,8 hPa 0,0 l/m 0,0 km/h W-NW 6,5 C 12,9 C 0,0 km/h
18.11.2013 16:00 8,8 C 74 % 1007,6 hPa 0,0 l/m 0,0 km/h NW 4,4 C 8,8 C 0,0 km/h
18.11.2013 17:00 6,1 C 82 % 1007,4 hPa 0,0 l/m 0,0 km/h NW 3,3 C 6,1 C 0,0 km/h
18.11.2013 18:00 3,9 C 84 % 1007,2 hPa 0,0 l/m 0,0 km/h W-NW 1,4 C 3,9 C 0,0 km/h
18.11.2013 19:00 3,6 C 85 % 1007,1 hPa 0,0 l/m 0,0 km/h NW 1,3 C 3,6 C 0,0 km/h
18.11.2013 20:00 2,9 C 86 % 1006,9 hPa 0,0 l/m 0,0 km/h S-SW 0,8 C 2,9 C 0,0 km/h
18.11.2013 21:00 3,3 C 86 % 1006,6 hPa 0,0 l/m 0,0 km/h SO 1,2 C 3,3 C 0,0 km/h
18.11.2013 22:00 3,1 C 86 % 1006,5 hPa 0,0 l/m 0,0 km/h NO 1,0 C 3,1 C 0,0 km/h
18.11.2013 23:00 2,0 C 86 % 1005,9 hPa 0,0 l/m 0,0 km/h W-NW -0,1 C 2,0 C 0,0 km/h
19.11.2013 00:00 2,3 C 85 % 1005,6 hPa 0,0 l/m 0,0 km/h W-NW 0,0 C 2,3 C 0,0 km/h
19.11.2013 01:00 2,6 C 84 % 1005,0 hPa 0,0 l/m 0,0 km/h W-NW 0,2 C 2,6 C 0,0 km/h
19.11.2013 02:00 2,9 C 84 % 1004,2 hPa 0,0 l/m 0,0 km/h NW 0,5 C 2,9 C 0,0 km/h
19.11.2013 03:00 3,2 C 82 % 1003,7 hPa 0,0 l/m 0,0 km/h S-SW 0,4 C 3,2 C 0,0 km/h
19.11.2013 04:00 3,3 C 81 % 1004,0 hPa 0,0 l/m 0,0 km/h SO 0,4 C 3,3 C 0,0 km/h
19.11.2013 05:00 3,4 C 81 % 1003,4 hPa 0,0 l/m 0,0 km/h W 0,5 C 3,4 C 0,0 km/h
19.11.2013 06:00 3,4 C 80 % 1003,4 hPa 0,0 l/m 0,0 km/h W 0,3 C 3,4 C 0,0 km/h
19.11.2013 07:00 3,5 C 79 % 1003,5 hPa 0,0 l/m 0,0 km/h W 0,2 C 3,5 C 0,0 km/h
19.11.2013 08:00 3,6 C 78 % 1004,4 hPa 0,0 l/m 0,0 km/h SO 0,1 C 3,6 C 0,0 km/h
19.11.2013 09:00 4,0 C 78 % 1004,3 hPa 0,0 l/m 0,0 km/h S-SO 0,5 C 4,0 C 0,0 km/h
19.11.2013 10:00 4,5 C 77 % 1004,2 hPa 0,0 l/m 1,3 km/h NO 0,8 C 4,5 C 0,7 km/h
19.11.2013 11:00 4,8 C 77 % 1004,4 hPa 0,0 l/m 0,0 km/h N-NO 1,1 C 4,8 C 0,0 km/h
19.11.2013 12:00 5,3 C 77 % 1003,6 hPa 0,0 l/m 0,0 km/h W-NW 1,6 C 5,3 C 0,0 km/h
19.11.2013 13:00 5,3 C 77 % 1003,2 hPa 0,0 l/m 0,0 km/h W-SW 1,6 C 5,3 C 0,0 km/h
19.11.2013 14:00 5,1 C 78 % 1003,2 hPa 0,0 l/m 0,0 km/h W-NW 1,6 C 5,1 C 0,0 km/h
19.11.2013 15:00 5,1 C 77 % 1003,1 hPa 0,0 l/m 0,0 km/h W-NW 1,4 C 5,1 C 0,0 km/h
19.11.2013 16:00 5,1 C 77 % 1003,3 hPa 0,5 l/m 0,0 km/h W 1,4 C 5,1 C 0,0 km/h
19.11.2013 17:00 5,1 C 77 % 1003,7 hPa 1,0 l/m 0,0 km/h NW 1,4 C 5,1 C 0,0 km/h
19.11.2013 18:00 4,3 C 76 % 1003,9 hPa 2,1 l/m 0,0 km/h NW 0,5 C 4,3 C 0,0 km/h
19.11.2013 19:00 3,6 C 77 % 1004,5 hPa 2,6 l/m 0,0 km/h SO -0,0 C 3,6 C 0,0 km/h
19.11.2013 20:00 3,2 C 78 % 1004,1 hPa 1,6 l/m 0,0 km/h SO -0,3 C 3,2 C 0,0 km/h
19.11.2013 21:00 2,6 C 78 % 1004,2 hPa 1,0 l/m 0,0 km/h O-SO -0,8 C 2,6 C 0,0 km/h
19.11.2013 22:00 2,6 C 78 % 1004,3 hPa 0,5 l/m 2,6 km/h SO -0,8 C 2,6 C 1,4 km/h
19.11.2013 23:00 2,6 C 78 % 1004,1 hPa 0,0 l/m 0,0 km/h SO -0,8 C 2,6 C 0,0 km/h
20.11.2013 00:00 2,6 C 77 % 1004,3 hPa 0,0 l/m 0,0 km/h SO -1,0 C 2,6 C 0,0 km/h
20.11.2013 01:00 2,9 C 76 % 1004,1 hPa 0,5 l/m 0,0 km/h SW -0,9 C 2,9 C 0,0 km/h
20.11.2013 02:00 2,9 C 76 % 1004,5 hPa 0,0 l/m 0,0 km/h S-SW -0,9 C 2,9 C 0,0 km/h
20.11.2013 03:00 2,8 C 75 % 1004,4 hPa 0,5 l/m 0,0 km/h SW -1,2 C 2,8 C 0,0 km/h
20.11.2013 04:00 2,9 C 75 % 1004,4 hPa 0,0 l/m 0,0 km/h W-SW -1,1 C 2,9 C 0,0 km/h
20.11.2013 05:00 2,9 C 75 % 1004,3 hPa 0,0 l/m 0,0 km/h W-SW -1,1 C 2,9 C 0,0 km/h
20.11.2013 06:00 2,9 C 74 % 1004,4 hPa 0,0 l/m 0,0 km/h SW -1,3 C 2,9 C 0,0 km/h
20.11.2013 07:00 2,9 C 73 % 1004,6 hPa 0,0 l/m 0,0 km/h SW -1,5 C 2,9 C 0,0 km/h
20.11.2013 08:00 2,9 C 73 % 1005,0 hPa 0,0 l/m 0,0 km/h W -1,5 C 2,9 C 0,0 km/h
20.11.2013 09:00 3,3 C 71 % 1005,0 hPa 0,5 l/m 0,0 km/h W -1,4 C 3,3 C 0,0 km/h
20.11.2013 10:00 3,6 C 70 % 1004,9 hPa 0,0 l/m 0,0 km/h W-SW -1,3 C 3,6 C 0,0 km/h
20.11.2013 11:00 3,9 C 71 % 1004,9 hPa 0,5 l/m 0,0 km/h S-SW -0,9 C 3,9 C 0,0 km/h
20.11.2013 12:00 4,4 C 72 % 1004,4 hPa 0,0 l/m 0,0 km/h SW -0,2 C 4,4 C 0,0 km/h
20.11.2013 13:00 4,1 C 76 % 1004,0 hPa 0,0 l/m 1,3 km/h SW 0,3 C 4,1 C 0,7 km/h
20.11.2013 14:00 4,1 C 78 % 1003,5 hPa 0,0 l/m 0,0 km/h S-SO 0,6 C 4,1 C 0,0 km/h
20.11.2013 15:00 3,9 C 78 % 1003,6 hPa 0,0 l/m 0,0 km/h W 0,4 C 3,9 C 0,0 km/h
20.11.2013 16:00 3,9 C 77 % 1003,4 hPa 0,5 l/m 0,0 km/h W-SW 0,2 C 3,9 C 0,0 km/h
20.11.2013 17:00 3,8 C 76 % 1003,2 hPa 0,5 l/m 0,0 km/h S-SO -0,0 C 3,8 C 0,0 km/h
20.11.2013 18:00 3,6 C 76 % 1002,7 hPa 0,5 l/m 0,0 km/h S-SO -0,2 C 3,6 C 0,0 km/h
20.11.2013 19:00 3,4 C 76 % 1002,4 hPa 0,0 l/m 3,2 km/h SO -0,4 C 3,4 C 1,8 km/h
20.11.2013 20:00 3,4 C 76 % 1001,9 hPa 0,5 l/m 0,0 km/h S-SW -0,4 C 3,4 C 0,0 km/h
20.11.2013 21:00 3,6 C 76 % 1001,4 hPa 0,0 l/m 5,2 km/h SW -0,2 C 3,6 C 2,9 km/h
20.11.2013 22:00 3,6 C 85 % 1001,2 hPa 0,0 l/m 29,2 km/h S-SW 1,3 C -8,1 C 16,2 km/h
20.11.2013 23:00 2,8 C 87 % 1000,2 hPa 0,0 l/m 11,0 km/h SO 0,9 C -1,1 C 6,1 km/h
21.11.2013 00:00 2,1 C 87 % 999,1 hPa 0,0 l/m 0,0 km/h O 0,2 C 2,1 C 0,0 km/h
21.11.2013 01:00 0,9 C 87 % 998,2 hPa 0,0 l/m 0,0 km/h O-SO -1,0 C 0,9 C 0,0 km/h
21.11.2013 02:00 0,9 C 85 % 997,3 hPa 0,0 l/m 0,0 km/h SO -1,3 C 0,9 C 0,0 km/h
21.11.2013 03:00 0,9 C 85 % 996,1 hPa 0,0 l/m 0,0 km/h SO -1,3 C 0,9 C 0,0 km/h
21.11.2013 04:00 0,9 C 84 % 995,8 hPa 0,0 l/m 0,0 km/h SO -1,5 C 0,9 C 0,0 km/h
21.11.2013 05:00 1,1 C 83 % 995,2 hPa 0,0 l/m 0,0 km/h N-NO -1,5 C 1,1 C 0,0 km/h
21.11.2013 06:00 1,2 C 83 % 994,6 hPa 0,0 l/m 0,0 km/h N-NO -1,4 C 1,2 C 0,0 km/h
21.11.2013 07:00 1,3 C 82 % 994,6 hPa 0,0 l/m 0,0 km/h N-NO -1,4 C 1,3 C 0,0 km/h
21.11.2013 08:00 1,3 C 82 % 994,7 hPa 0,5 l/m 0,0 km/h N-NO -1,4 C 1,3 C 0,0 km/h
21.11.2013 09:00 2,1 C 81 % 994,9 hPa 0,5 l/m 0,0 km/h NW -0,8 C 2,1 C 0,0 km/h
21.11.2013 10:00 2,5 C 81 % 995,4 hPa 0,0 l/m 0,0 km/h W -0,4 C 2,5 C 0,0 km/h
21.11.2013 11:00 2,7 C 83 % 995,7 hPa 0,5 l/m 0,0 km/h W 0,1 C 2,7 C 0,0 km/h
21.11.2013 12:00 3,3 C 83 % 995,7 hPa 0,0 l/m 0,0 km/h W 0,7 C 3,3 C 0,0 km/h
21.11.2013 13:00 3,3 C 84 % 995,8 hPa 0,0 l/m 0,0 km/h W 0,9 C 3,3 C 0,0 km/h
21.11.2013 14:00 3,3 C 84 % 995,8 hPa 0,0 l/m 0,0 km/h W-SW 0,9 C 3,3 C 0,0 km/h
21.11.2013 15:00 3,2 C 85 % 996,3 hPa 0,0 l/m 0,0 km/h W 0,9 C 3,2 C 0,0 km/h
21.11.2013 16:00 2,4 C 84 % 996,9 hPa 0,5 l/m 1,9 km/h S -0,0 C 2,4 C 1,1 km/h
21.11.2013 17:00 1,1 C 84 % 997,4 hPa 1,0 l/m 0,0 km/h S -1,3 C 1,1 C 0,0 km/h
21.11.2013 18:00 0,8 C 84 % 997,9 hPa 0,5 l/m 0,0 km/h S -1,6 C 0,8 C 0,0 km/h
21.11.2013 19:00 0,4 C 83 % 998,2 hPa 0,0 l/m 0,0 km/h S -2,1 C 0,4 C 0,0 km/h
21.11.2013 20:00 0,4 C 83 % 998,1 hPa 0,0 l/m 0,0 km/h S -2,1 C 0,4 C 0,0 km/h
21.11.2013 21:00 0,6 C 82 % 997,9 hPa 0,0 l/m 0,0 km/h S -2,1 C 0,6 C 0,0 km/h
21.11.2013 22:00 0,8 C 82 % 997,9 hPa 0,0 l/m 0,0 km/h N-NO -1,9 C 0,8 C 0,0 km/h
21.11.2013 23:00 1,1 C 81 % 998,0 hPa 0,5 l/m 0,0 km/h N-NO -1,8 C 1,1 C 0,0 km/h
22.11.2013 00:00 1,2 C 80 % 997,6 hPa 0,5 l/m 0,0 km/h N-NO -1,9 C 1,2 C 0,0 km/h
22.11.2013 01:00 1,3 C 80 % 997,4 hPa 0,5 l/m 0,0 km/h SO -1,8 C 1,3 C 0,0 km/h
22.11.2013 02:00 1,5 C 79 % 997,6 hPa 0,5 l/m 0,0 km/h N-NO -1,7 C 1,5 C 0,0 km/h
22.11.2013 03:00 1,8 C 78 % 997,9 hPa 0,5 l/m 0,0 km/h O-SO -1,6 C 1,8 C 0,0 km/h
22.11.2013 04:00 1,8 C 78 % 998,3 hPa 1,0 l/m 0,0 km/h SO -1,6 C 1,8 C 0,0 km/h
22.11.2013 05:00 1,3 C 78 % 998,5 hPa 0,5 l/m 1,3 km/h SO -2,1 C 1,3 C 0,7 km/h
22.11.2013 06:00 1,4 C 77 % 998,7 hPa 0,5 l/m 0,0 km/h SO -2,2 C 1,4 C 0,0 km/h
22.11.2013 07:00 1,3 C 77 % 999,3 hPa 0,0 l/m 0,0 km/h SO -2,3 C 1,3 C 0,0 km/h
22.11.2013 08:00 1,4 C 77 % 999,6 hPa 0,0 l/m 0,0 km/h SO -2,2 C 1,4 C 0,0 km/h
22.11.2013 09:00 1,9 C 76 % 1000,3 hPa 0,0 l/m 0,0 km/h SO -1,9 C 1,9 C 0,0 km/h
22.11.2013 10:00 2,2 C 75 % 1000,9 hPa 0,0 l/m 0,0 km/h SO -1,8 C 2,2 C 0,0 km/h
22.11.2013 11:00 2,7 C 74 % 1001,1 hPa 0,0 l/m 0,0 km/h SO -1,5 C 2,7 C 0,0 km/h
22.11.2013 12:00 3,2 C 73 % 1001,3 hPa 0,0 l/m 0,0 km/h SO -1,2 C 3,2 C 0,0 km/h
22.11.2013 13:00 4,1 C 73 % 1001,6 hPa 0,0 l/m 0,0 km/h W -0,3 C 4,1 C 0,0 km/h
22.11.2013 14:00 4,8 C 79 % 1002,0 hPa 0,0 l/m 0,0 km/h W 1,5 C 4,8 C 0,0 km/h
22.11.2013 15:00 3,6 C 82 % 1002,7 hPa 0,0 l/m 2,6 km/h NW 0,8 C 3,6 C 1,4 km/h
22.11.2013 16:00 2,9 C 82 % 1003,6 hPa 0,0 l/m 0,0 km/h S-SW 0,1 C 2,9 C 0,0 km/h
22.11.2013 17:00 3,0 C 81 % 1004,4 hPa 0,0 l/m 0,0 km/h S 0,1 C 3,0 C 0,0 km/h
22.11.2013 18:00 3,0 C 80 % 1004,6 hPa 0,0 l/m 0,0 km/h S -0,1 C 3,0 C 0,0 km/h
22.11.2013 19:00 3,1 C 79 % 1005,0 hPa 0,0 l/m 0,0 km/h S-SO -0,2 C 3,1 C 0,0 km/h
22.11.2013 20:00 3,2 C 79 % 1005,9 hPa 0,0 l/m 0,0 km/h S-SO -0,1 C 3,2 C 0,0 km/h
22.11.2013 21:00 3,2 C 79 % 1006,5 hPa 0,0 l/m 0,0 km/h SW -0,1 C 3,2 C 0,0 km/h
22.11.2013 22:00 3,3 C 79 % 1006,9 hPa 0,0 l/m 0,0 km/h SW 0,0 C 3,3 C 0,0 km/h
22.11.2013 23:00 3,3 C 79 % 1007,2 hPa 0,0 l/m 0,0 km/h NW 0,0 C 3,3 C 0,0 km/h
23.11.2013 00:00 3,2 C 79 % 1007,5 hPa 0,0 l/m 0,0 km/h NW -0,1 C 3,2 C 0,0 km/h
23.11.2013 01:00 2,6 C 79 % 1007,3 hPa 0,0 l/m 0,0 km/h SO -0,7 C 2,6 C 0,0 km/h
23.11.2013 02:00 2,9 C 78 % 1007,9 hPa 0,0 l/m 0,0 km/h SO -0,5 C 2,9 C 0,0 km/h
23.11.2013 03:00 3,1 C 78 % 1007,5 hPa 0,0 l/m 0,0 km/h N-NO -0,4 C 3,1 C 0,0 km/h
23.11.2013 04:00 3,4 C 77 % 1007,9 hPa 0,0 l/m 0,0 km/h N -0,2 C 3,4 C 0,0 km/h
23.11.2013 05:00 3,9 C 76 % 1008,1 hPa 0,0 l/m 0,0 km/h N 0,1 C 3,9 C 0,0 km/h
23.11.2013 06:00 3,9 C 76 % 1008,1 hPa 0,0 l/m 0,0 km/h N 0,1 C 3,9 C 0,0 km/h
23.11.2013 07:00 3,9 C 76 % 1008,3 hPa 0,0 l/m 0,0 km/h N-NO 0,1 C 3,9 C 0,0 km/h
23.11.2013 08:00 4,1 C 78 % 1008,7 hPa 0,0 l/m 0,0 km/h N-NO 0,6 C 4,1 C 0,0 km/h
23.11.2013 09:00 4,2 C 80 % 1008,9 hPa 0,0 l/m 1,3 km/h N-NO 1,1 C 4,2 C 0,7 km/h
23.11.2013 10:00 4,8 C 82 % 1009,4 hPa 0,0 l/m 0,6 km/h N-NO 2,0 C 4,8 C 0,4 km/h
23.11.2013 11:00 4,7 C 86 % 1009,3 hPa 0,0 l/m 21,4 km/h N-NO 2,6 C -4,1 C 11,9 km/h
23.11.2013 12:00 4,7 C 86 % 1009,3 hPa 0,0 l/m 0,0 km/h N 2,6 C 4,7 C 0,0 km/h
23.11.2013 13:00 4,9 C 86 % 1008,9 hPa 0,0 l/m 1,9 km/h NO 2,8 C 4,9 C 1,1 km/h
23.11.2013 14:00 4,6 C 85 % 1008,8 hPa 0,0 l/m 20,7 km/h NO 2,3 C -4,0 C 11,5 km/h
23.11.2013 15:00 4,6 C 85 % 1009,1 hPa 0,0 l/m 11,0 km/h N 2,3 C 0,9 C 6,1 km/h
23.11.2013 16:00 4,9 C 85 % 1009,3 hPa 0,0 l/m 0,0 km/h N-NO 2,6 C 4,9 C 0,0 km/h
23.11.2013 17:00 4,9 C 86 % 1009,7 hPa 0,0 l/m 4,5 km/h N-NO 2,8 C 4,9 C 2,5 km/h
23.11.2013 18:00 4,9 C 85 % 1010,0 hPa 0,0 l/m 0,0 km/h N-NO 2,6 C 4,9 C 0,0 km/h
23.11.2013 19:00 5,1 C 85 % 1010,1 hPa 0,0 l/m 0,0 km/h N-NW 2,8 C 5,1 C 0,0 km/h
23.11.2013 20:00 5,2 C 85 % 1010,4 hPa 0,0 l/m 0,0 km/h N-NW 2,9 C 5,2 C 0,0 km/h
23.11.2013 21:00 5,4 C 86 % 1010,6 hPa 0,0 l/m 0,0 km/h N 3,3 C 5,4 C 0,0 km/h
23.11.2013 22:00 5,1 C 86 % 1011,2 hPa 0,0 l/m 0,0 km/h N-NO 3,0 C 5,1 C 0,0 km/h
23.11.2013 23:00 5,0 C 86 % 1011,5 hPa 0,0 l/m 0,0 km/h N 2,9 C 5,0 C 0,0 km/h
24.11.2013 00:00 5,0 C 87 % 1011,6 hPa 0,0 l/m 0,6 km/h N-NW 3,0 C 5,0 C 0,4 km/h
24.11.2013 01:00 5,1 C 87 % 1011,8 hPa 0,0 l/m 0,0 km/h NW 3,1 C 5,1 C 0,0 km/h
24.11.2013 02:00 5,1 C 87 % 1012,1 hPa 0,0 l/m 0,0 km/h N 3,1 C 5,1 C 0,0 km/h
24.11.2013 03:00 5,1 C 87 % 1012,5 hPa 0,0 l/m 0,0 km/h N 3,1 C 5,1 C 0,0 km/h
24.11.2013 04:00 5,2 C 87 % 1012,6 hPa 0,0 l/m 0,0 km/h NW 3,2 C 5,2 C 0,0 km/h
24.11.2013 05:00 5,0 C 87 % 1012,8 hPa 0,0 l/m 0,0 km/h N-NO 3,0 C 5,0 C 0,0 km/h
24.11.2013 06:00 5,4 C 87 % 1013,1 hPa 0,0 l/m 0,0 km/h N 3,4 C 5,4 C 0,0 km/h
24.11.2013 07:00 5,1 C 87 % 1013,7 hPa 0,0 l/m 0,0 km/h N-NO 3,1 C 5,1 C 0,0 km/h
24.11.2013 08:00 5,2 C 86 % 1014,1 hPa 0,0 l/m 0,0 km/h N-NO 3,1 C 5,2 C 0,0 km/h
24.11.2013 09:00 5,2 C 86 % 1014,9 hPa 0,0 l/m 0,0 km/h N-NO 3,1 C 5,2 C 0,0 km/h
24.11.2013 10:00 5,6 C 85 % 1015,4 hPa 0,0 l/m 0,0 km/h N-NO 3,3 C 5,6 C 0,0 km/h
24.11.2013 11:00 6,1 C 85 % 1015,8 hPa 0,0 l/m 0,0 km/h N-NO 3,8 C 6,1 C 0,0 km/h
24.11.2013 12:00 6,1 C 86 % 1015,8 hPa 0,0 l/m 0,0 km/h N 3,9 C 6,1 C 0,0 km/h
24.11.2013 13:00 6,1 C 87 % 1016,2 hPa 0,0 l/m 7,8 km/h N 4,1 C 4,9 C 4,3 km/h
24.11.2013 14:00 5,6 C 86 % 1016,4 hPa 0,0 l/m 14,9 km/h N 3,4 C -0,1 C 8,3 km/h
24.11.2013 15:00 5,7 C 84 % 1016,9 hPa 0,0 l/m 0,0 km/h N-NO 3,2 C 5,7 C 0,0 km/h
24.11.2013 16:00 5,3 C 83 % 1017,4 hPa 0,0 l/m 0,0 km/h N-NO 2,7 C 5,3 C 0,0 km/h
24.11.2013 17:00 4,9 C 84 % 1018,1 hPa 0,0 l/m 0,0 km/h N-NO 2,4 C 4,9 C 0,0 km/h
24.11.2013 18:00 4,7 C 86 % 1018,8 hPa 0,0 l/m 0,0 km/h N 2,6 C 4,7 C 0,0 km/h
24.11.2013 19:00 4,6 C 85 % 1019,4 hPa 0,0 l/m 0,0 km/h N-NO 2,3 C 4,6 C 0,0 km/h
24.11.2013 20:00 3,8 C 86 % 1019,8 hPa 0,0 l/m 0,0 km/h N-NO 1,7 C 3,8 C 0,0 km/h
24.11.2013 21:00 3,4 C 87 % 1020,1 hPa 0,5 l/m 0,0 km/h N-NO 1,4 C 3,4 C 0,0 km/h
24.11.2013 22:00 3,6 C 87 % 1020,4 hPa 0,0 l/m 0,0 km/h N 1,6 C 3,6 C 0,0 km/h
24.11.2013 23:00 3,6 C 87 % 1020,9 hPa 0,0 l/m 0,0 km/h N-NO 1,6 C 3,6 C 0,0 km/h
Min-Datum _ 18.11.13 18.11.13 21.11.13 - 18.11.13 - 18.11.13 20.11.13 18.11.13
_ Min-Zeit 02:19 14:19 06:19 - 00:19 - 07:19 22:19 00:19
Minimum _ -0,1 C 63 % 994,6 hPa - 0,0 km/h - -2,4 C -8,1 C 0,0 km/h
Max-Datum _ 18.11.13 20.11.13 24.11.13 19.11.13 20.11.13 - 18.11.13 18.11.13 20.11.13
_ Max-Zeit 14:19 23:19 23:19 19:19 22:19 - 10:19 14:19 22:19
Maximum _ 14,8 C 87 % 1020,9 hPa 2,6 l/m 29,2 km/h
S-SW
- 8,2 C 14,8 C 16,2 km/h
S-SW
Durchschnitt _ 3,7 C 81 % 1005,8 hPa #22,3 l/m 0,9 km/h N-NO 0,6 C 3,4 C 0,5 km/h
www.sexauwetter.de